createdAt,value
2018-02-08T00:00:44.386Z,87.49
2018-02-08T00:03:11.878Z,87.05
2018-02-08T00:05:39.342Z,87.21
2018-02-08T00:08:06.823Z,87.31
2018-02-08T00:10:34.290Z,87.14
2018-02-08T00:13:01.772Z,87.12
2018-02-08T00:15:29.259Z,87.39
2018-02-08T00:17:56.746Z,87.88
2018-02-08T00:20:24.210Z,87.75
2018-02-08T00:22:51.729Z,88.20
2018-02-08T00:25:19.223Z,88.16
2018-02-08T00:27:46.714Z,88.28
2018-02-08T00:30:14.183Z,88.16
2018-02-08T00:32:41.666Z,87.90
2018-02-08T00:35:09.130Z,87.56
2018-02-08T00:37:36.610Z,87.35
2018-02-08T00:40:04.070Z,87.23
2018-02-08T00:42:31.562Z,87.24
2018-02-08T00:44:59.147Z,87.43
2018-02-08T00:47:26.630Z,87.02
2018-02-08T00:49:54.097Z,87.32
2018-02-08T00:52:21.591Z,87.19
2018-02-08T00:54:49.065Z,86.99
2018-02-08T00:57:16.734Z,87.03
2018-02-08T00:59:44.189Z,87.47
2018-02-08T01:02:11.648Z,87.23
2018-02-08T01:04:39.135Z,87.55
2018-02-08T01:07:06.594Z,87.76
2018-02-08T01:09:34.084Z,88.07
2018-02-08T01:12:01.546Z,87.95
2018-02-08T01:14:29.097Z,87.91
2018-02-08T01:16:56.518Z,87.92
2018-02-08T01:19:23.998Z,88.17
2018-02-08T01:21:51.455Z,87.94
2018-02-08T01:24:18.940Z,88.26
2018-02-08T01:26:46.438Z,88.04
2018-02-08T01:29:13.919Z,87.54
2018-02-08T01:31:41.391Z,87.79
2018-02-08T01:34:08.890Z,88.18
2018-02-08T01:36:36.359Z,88.14
2018-02-08T01:39:03.838Z,88.31
2018-02-08T01:41:31.306Z,88.57
2018-02-08T01:43:58.818Z,88.40
2018-02-08T01:46:26.291Z,88.33
2018-02-08T01:48:53.781Z,88.53
2018-02-08T01:51:21.251Z,88.68
2018-02-08T01:53:48.735Z,88.78
2018-02-08T01:56:16.194Z,88.80
2018-02-08T01:58:43.678Z,88.57
2018-02-08T02:01:11.143Z,88.59
2018-02-08T02:03:38.636Z,88.44
2018-02-08T02:06:06.095Z,88.25
2018-02-08T02:08:33.580Z,88.33
2018-02-08T02:11:01.139Z,88.68
2018-02-08T02:13:28.622Z,87.86
2018-02-08T02:15:56.092Z,87.51
2018-02-08T02:18:23.579Z,87.66
2018-02-08T02:20:51.049Z,87.52
2018-02-08T02:23:18.537Z,87.94
2018-02-08T02:25:46.019Z,87.37
2018-02-08T02:28:13.483Z,87.02
2018-02-08T02:30:40.980Z,86.82
2018-02-08T02:33:08.447Z,86.65
2018-02-08T02:35:35.922Z,86.74
2018-02-08T02:38:03.402Z,86.95
2018-02-08T02:40:30.888Z,86.73
2018-02-08T02:42:58.376Z,87.00
2018-02-08T02:45:25.856Z,87.36
2018-02-08T02:47:53.318Z,87.59
2018-02-08T02:50:20.817Z,88.05
2018-02-08T02:52:48.299Z,87.91
2018-02-08T02:55:15.804Z,88.03
2018-02-08T02:57:43.279Z,88.12
2018-02-08T03:00:10.771Z,87.76
2018-02-08T03:02:38.235Z,87.21
2018-02-08T03:05:05.718Z,87.14
2018-02-08T03:07:33.194Z,86.93
2018-02-08T03:10:00.694Z,86.81
2018-02-08T03:12:28.154Z,86.86
2018-02-08T03:14:55.638Z,86.97
2018-02-08T03:17:23.111Z,86.66
2018-02-08T03:19:50.599Z,86.72
2018-02-08T03:22:18.068Z,86.60
2018-02-08T03:24:45.559Z,86.93
2018-02-08T03:27:13.023Z,87.41
2018-02-08T03:29:40.505Z,87.56
2018-02-08T03:32:07.996Z,87.84
2018-02-08T03:34:35.491Z,87.93
2018-02-08T03:37:02.966Z,87.93
2018-02-08T03:39:30.462Z,87.71
2018-02-08T03:41:57.930Z,87.62
2018-02-08T03:44:25.417Z,87.51
2018-02-08T03:46:52.990Z,87.39
2018-02-08T03:49:20.470Z,87.40
2018-02-08T03:51:47.933Z,87.47
2018-02-08T03:54:15.418Z,87.94
2018-02-08T03:56:42.906Z,88.30
2018-02-08T03:59:10.369Z,88.30
2018-02-08T04:01:37.851Z,88.31
2018-02-08T04:04:05.312Z,88.26
2018-02-08T04:06:32.804Z,88.48
2018-02-08T04:09:00.406Z,88.49
2018-02-08T04:11:27.886Z,88.43
2018-02-08T04:13:55.360Z,88.49
2018-02-08T04:16:22.851Z,88.44
2018-02-08T04:18:50.318Z,88.18
2018-02-08T04:21:17.819Z,88.17
2018-02-08T04:23:45.302Z,88.25
2018-02-08T04:26:12.786Z,88.23
2018-02-08T04:28:40.254Z,88.18
2018-02-08T04:31:07.743Z,88.26
2018-02-08T04:33:35.210Z,88.19
2018-02-08T04:36:02.700Z,88.17
2018-02-08T04:38:41.941Z,88.34
2018-02-08T04:41:21.101Z,88.39
2018-02-08T04:44:00.456Z,88.38
2018-02-08T04:46:39.725Z,87.92
2018-02-08T04:49:07.230Z,87.17
2018-02-08T04:51:34.713Z,87.07
2018-02-08T04:54:02.205Z,86.64
2018-02-08T04:56:29.854Z,86.74
2018-02-08T04:58:57.322Z,86.58
2018-02-08T05:01:24.806Z,86.68
2018-02-08T05:03:52.262Z,86.70
2018-02-08T05:06:19.746Z,86.76
2018-02-08T05:08:47.216Z,86.64
2018-02-08T05:11:14.707Z,86.66
2018-02-08T05:13:42.171Z,86.78
2018-02-08T05:16:09.657Z,86.95
2018-02-08T05:18:37.120Z,86.90
2018-02-08T05:21:04.604Z,86.80
2018-02-08T05:23:32.071Z,87.09
2018-02-08T05:25:59.718Z,87.31
2018-02-08T05:28:27.191Z,87.57
2018-02-08T05:30:54.686Z,87.85
2018-02-08T05:33:22.175Z,88.23
2018-02-08T05:35:49.678Z,88.65
2018-02-08T05:38:17.162Z,88.96
2018-02-08T05:40:44.631Z,89.25
2018-02-08T05:43:12.111Z,89.21
2018-02-08T05:45:39.570Z,89.27
2018-02-08T05:48:07.059Z,89.06
2018-02-08T05:50:34.531Z,88.96
2018-02-08T05:53:02.015Z,88.86
2018-02-08T05:55:29.479Z,88.73
2018-02-08T05:57:56.959Z,88.67
2018-02-08T06:00:24.458Z,88.49
2018-02-08T06:02:51.950Z,88.31
2018-02-08T06:05:19.434Z,88.29
2018-02-08T06:07:46.919Z,88.24
2018-02-08T06:10:14.390Z,88.31
2018-02-08T06:12:41.876Z,88.53
2018-02-08T06:15:09.338Z,88.52
2018-02-08T06:17:36.912Z,88.25
2018-02-08T06:20:04.385Z,88.15
2018-02-08T06:22:31.883Z,88.20
2018-02-08T06:25:00.497Z,88.16
2018-02-08T06:27:27.962Z,88.40
2018-02-08T06:29:55.427Z,88.39
2018-02-08T06:32:22.927Z,88.47
2018-02-08T06:34:50.394Z,88.30
2018-02-08T06:37:17.877Z,88.28
2018-02-08T06:39:45.351Z,88.43
2018-02-08T06:42:12.831Z,88.46
2018-02-08T06:47:14.030Z,88.44
2018-02-08T06:49:41.491Z,88.43
2018-02-08T06:52:08.984Z,88.53
2018-02-08T06:54:36.458Z,88.54
2018-02-08T06:57:03.940Z,88.39
2018-02-08T06:59:31.403Z,88.34
2018-02-08T07:01:58.864Z,88.25
2018-02-08T07:04:26.345Z,88.38
2018-02-08T07:06:53.814Z,88.42
2018-02-08T07:09:21.299Z,88.50
2018-02-08T07:11:48.764Z,88.56
2018-02-08T07:14:16.247Z,88.61
2018-02-08T07:16:43.714Z,88.50
2018-02-08T07:19:11.199Z,88.45
2018-02-08T07:21:38.668Z,88.36
2018-02-08T07:24:06.147Z,88.15
2018-02-08T07:26:33.614Z,87.91
2018-02-08T07:29:01.104Z,87.65
2018-02-08T07:31:28.683Z,87.47
2018-02-08T07:33:56.208Z,87.45
2018-02-08T07:36:23.672Z,87.26
2018-02-08T07:38:51.165Z,86.67
2018-02-08T07:41:18.634Z,86.19
2018-02-08T07:43:46.160Z,85.77
2018-02-08T07:46:13.629Z,85.84
2018-02-08T07:48:41.114Z,85.64
2018-02-08T07:51:08.587Z,85.47
2018-02-08T07:53:36.080Z,85.13
2018-02-08T07:56:03.552Z,84.88
2018-02-08T07:58:31.043Z,84.52
2018-02-08T08:00:58.513Z,84.16
2018-02-08T08:03:26.003Z,83.14
2018-02-08T08:05:53.518Z,83.15
2018-02-08T08:08:21.030Z,82.56
2018-02-08T08:10:48.530Z,81.79
2018-02-08T08:13:16.024Z,81.39
2018-02-08T08:15:43.497Z,80.95
2018-02-08T08:18:10.990Z,80.40
2018-02-08T08:20:38.459Z,80.33
2018-02-08T08:23:05.936Z,80.41
2018-02-08T08:25:33.428Z,80.10
2018-02-08T08:28:00.899Z,79.57
2018-02-08T08:30:28.395Z,79.06
2018-02-08T08:32:55.854Z,78.82
2018-02-08T08:35:23.346Z,78.11
2018-02-08T08:37:50.850Z,77.54
2018-02-08T08:40:18.331Z,77.59
2018-02-08T08:42:45.804Z,78.62
2018-02-08T08:45:13.303Z,79.23
2018-02-08T08:47:40.775Z,79.27
2018-02-08T08:50:08.268Z,78.64
2018-02-08T08:52:35.743Z,78.39
2018-02-08T08:55:03.235Z,78.56
2018-02-08T08:57:30.710Z,79.02
2018-02-08T08:59:58.194Z,79.07
2018-02-08T09:02:25.674Z,78.75
2018-02-08T09:04:53.167Z,78.09
2018-02-08T09:07:20.634Z,77.96
2018-02-08T09:09:48.123Z,76.95
2018-02-08T09:12:15.613Z,77.09
2018-02-08T09:14:43.318Z,76.97
2018-02-08T09:17:10.787Z,77.11
2018-02-08T09:19:38.270Z,77.69
2018-02-08T09:22:05.737Z,76.46
2018-02-08T09:24:33.258Z,75.60
2018-02-08T09:27:00.725Z,74.90
2018-02-08T09:29:28.217Z,75.31
2018-02-08T09:31:55.710Z,75.01
2018-02-08T09:34:23.207Z,73.95
2018-02-08T09:36:50.675Z,73.17
2018-02-08T09:39:18.171Z,74.56
2018-02-08T09:41:45.646Z,73.91
2018-02-08T09:44:13.166Z,73.90
2018-02-08T09:46:40.634Z,74.67
2018-02-08T09:49:08.103Z,75.46
2018-02-08T09:51:35.610Z,75.87
2018-02-08T09:54:03.081Z,76.40
2018-02-08T09:56:30.575Z,75.72
2018-02-08T09:58:58.038Z,74.93
2018-02-08T10:01:25.520Z,74.07
2018-02-08T10:03:52.991Z,73.28
2018-02-08T10:06:21.046Z,73.49
2018-02-08T10:08:49.423Z,73.31
2018-02-08T10:11:17.771Z,73.34
2018-02-08T10:13:45.340Z,74.69
2018-02-08T10:16:12.935Z,73.58
2018-02-08T10:18:40.457Z,76.05
2018-02-08T10:21:07.951Z,75.95
2018-02-08T10:23:35.430Z,77.86
2018-02-08T10:26:02.915Z,77.27
2018-02-08T10:28:30.427Z,77.15
2018-02-08T10:30:57.884Z,76.83
2018-02-08T10:33:25.360Z,75.46
2018-02-08T10:35:52.858Z,74.54
2018-02-08T10:38:20.321Z,75.23
2018-02-08T10:40:47.944Z,74.52
2018-02-08T10:43:15.406Z,74.47
2018-02-08T10:45:43.835Z,73.80
2018-02-08T10:48:11.298Z,74.01
2018-02-08T10:50:38.798Z,72.98
2018-02-08T10:53:06.495Z,73.95
2018-02-08T10:55:33.975Z,72.79
2018-02-08T10:58:01.444Z,73.21
2018-02-08T11:00:29.159Z,72.93
2018-02-08T11:02:56.636Z,72.56
2018-02-08T11:05:25.131Z,72.23
2018-02-08T11:07:52.603Z,71.58
2018-02-08T11:10:20.091Z,71.72
2018-02-08T11:12:47.552Z,71.06
2018-02-08T11:15:15.018Z,70.75
2018-02-08T11:17:42.506Z,72.12
2018-02-08T11:20:09.999Z,72.10
2018-02-08T11:22:37.501Z,71.59
2018-02-08T11:25:05.003Z,72.08
2018-02-08T11:27:32.523Z,70.25
2018-02-08T11:29:59.997Z,70.96
2018-02-08T11:32:27.515Z,72.27
2018-02-08T11:34:55.011Z,71.39
2018-02-08T11:37:22.537Z,72.34
2018-02-08T11:39:50.012Z,71.82
2018-02-08T11:42:17.515Z,71.69
2018-02-08T11:44:44.995Z,72.00
2018-02-08T11:47:12.661Z,72.67
2018-02-08T11:49:40.135Z,72.19
2018-02-08T11:52:07.779Z,72.01
2018-02-08T11:54:35.248Z,72.31
2018-02-08T11:57:03.073Z,72.16
2018-02-08T11:59:30.579Z,70.32
2018-02-08T12:01:58.087Z,70.43
2018-02-08T12:04:25.576Z,70.50
2018-02-08T12:06:53.075Z,69.47
2018-02-08T12:09:20.959Z,68.95
2018-02-08T12:11:48.456Z,68.31
2018-02-08T12:14:20.172Z,68.03
2018-02-08T12:16:48.171Z,67.41
2018-02-08T12:19:15.810Z,65.60
2018-02-08T12:21:43.384Z,66.71
2018-02-08T12:24:12.217Z,68.08
2018-02-08T12:26:40.068Z,68.16
2018-02-08T12:29:07.603Z,66.85
2018-02-08T12:31:35.146Z,67.96
2018-02-08T12:34:02.602Z,68.98
2018-02-08T12:36:30.880Z,68.61
2018-02-08T12:39:01.078Z,68.08
2018-02-08T12:41:28.784Z,67.54
2018-02-08T12:43:56.458Z,66.62
2018-02-08T12:46:26.568Z,65.66
2018-02-08T12:48:56.480Z,64.88
2018-02-08T12:51:23.995Z,65.63
2018-02-08T12:53:51.479Z,64.57
2018-02-08T12:56:19.628Z,63.81
2018-02-08T12:58:47.166Z,63.17
2018-02-08T13:01:15.921Z,62.46
2018-02-08T13:03:43.453Z,62.90
2018-02-08T13:06:10.982Z,61.94
2018-02-08T13:08:39.607Z,61.97
2018-02-08T13:11:08.362Z,63.33
2018-02-08T13:13:36.805Z,61.68
2018-02-08T13:16:04.741Z,61.56
2018-02-08T13:18:33.324Z,61.98
2018-02-08T13:21:04.800Z,62.26
2018-02-08T13:23:32.312Z,61.26
2018-02-08T13:26:00.005Z,60.53
2018-02-08T13:28:27.568Z,62.73
2018-02-08T13:30:56.361Z,61.92
2018-02-08T13:33:24.177Z,62.85
2018-02-08T13:35:52.735Z,60.23
2018-02-08T13:38:20.285Z,58.96
2018-02-08T13:40:50.479Z,59.53
2018-02-08T13:43:17.995Z,58.11
2018-02-08T13:45:45.467Z,58.35
2018-02-08T13:48:31.914Z,58.37
2018-02-08T13:51:04.990Z,58.80
2018-02-08T13:56:48.778Z,53.59
2018-02-08T13:59:21.919Z,51.47
2018-02-08T14:01:50.327Z,50.77
2018-02-08T14:04:17.811Z,50.36
2018-02-08T14:06:45.296Z,47.36
2018-02-08T14:09:12.783Z,49.02
2018-02-08T14:11:40.264Z,49.04
2018-02-08T14:14:07.765Z,46.87
2018-02-08T14:16:35.226Z,44.66
2018-02-08T14:19:02.714Z,43.51
2018-02-08T14:21:30.174Z,43.06
2018-02-08T14:23:57.666Z,41.97
2018-02-08T14:26:25.125Z,40.59
2018-02-08T14:28:52.615Z,40.07
2018-02-08T14:31:20.080Z,39.63
2018-02-08T14:33:47.566Z,38.35
2018-02-08T14:36:15.042Z,38.15
2018-02-08T14:38:42.516Z,38.93
2018-02-08T14:41:10.006Z,38.14
2018-02-08T14:43:37.482Z,38.01
2018-02-08T14:46:05.022Z,41.71
2018-02-08T14:48:32.450Z,39.69
2018-02-08T14:50:59.926Z,38.13
2018-02-08T14:53:27.404Z,36.99
2018-02-08T14:55:54.895Z,36.26
2018-02-08T14:58:22.358Z,35.42
2018-02-08T15:00:49.864Z,37.55
2018-02-08T15:03:17.328Z,35.32
2018-02-08T15:05:44.827Z,39.12
2018-02-08T15:08:12.336Z,39.79
2018-02-08T15:10:39.832Z,37.69
2018-02-08T15:13:07.306Z,38.27
2018-02-08T15:15:34.786Z,39.90
2018-02-08T15:18:02.257Z,41.30
2018-02-08T15:20:30.089Z,42.79
2018-02-08T15:22:57.988Z,44.62
2018-02-08T15:25:25.842Z,46.37
2018-02-08T15:27:53.772Z,46.52
2018-02-08T15:30:21.335Z,47.99
2018-02-08T15:32:49.846Z,49.31
2018-02-08T15:35:17.376Z,50.61
2018-02-08T15:37:45.071Z,52.22
2018-02-08T15:40:12.892Z,53.05
2018-02-08T15:42:40.357Z,53.08
2018-02-08T15:45:08.208Z,51.43
2018-02-08T15:47:35.734Z,54.98
2018-02-08T15:50:03.256Z,55.21
2018-02-08T15:52:31.237Z,56.76
2018-02-08T15:54:58.753Z,57.78
2018-02-08T15:57:26.612Z,58.36
2018-02-08T15:59:54.444Z,58.02
2018-02-08T16:02:21.938Z,59.90
2018-02-08T16:04:49.426Z,59.55
2018-02-08T16:07:16.950Z,60.00
2018-02-08T16:09:44.937Z,59.95
2018-02-08T16:12:12.766Z,61.17
2018-02-08T16:14:40.234Z,61.96
2018-02-08T16:17:07.711Z,63.57
2018-02-08T16:19:35.217Z,64.88
2018-02-08T16:22:02.703Z,65.53
2018-02-08T16:24:30.170Z,65.57
2018-02-08T16:26:57.654Z,66.00
2018-02-08T16:29:25.188Z,66.79
2018-02-08T16:31:52.679Z,67.98
2018-02-08T16:34:20.159Z,68.44
2018-02-08T16:36:47.652Z,68.99
2018-02-08T16:39:15.132Z,70.29
2018-02-08T16:41:42.611Z,71.53
2018-02-08T16:44:10.090Z,71.81
2018-02-08T16:46:37.582Z,71.53
2018-02-08T16:49:05.058Z,71.81
2018-02-08T16:51:32.539Z,72.76
2018-02-08T16:54:00.027Z,73.12
2018-02-08T16:56:27.510Z,73.83
2018-02-08T16:58:54.989Z,74.09
2018-02-08T17:01:22.479Z,74.07
2018-02-08T17:03:49.947Z,74.73
2018-02-08T17:06:17.435Z,75.23
2018-02-08T17:08:44.911Z,75.68
2018-02-08T17:11:12.411Z,75.62
2018-02-08T17:13:39.875Z,76.01
2018-02-08T17:16:07.364Z,75.76
2018-02-08T17:18:34.832Z,76.35
2018-02-08T17:21:02.303Z,76.41
2018-02-08T17:23:29.796Z,76.50
2018-02-08T17:25:57.268Z,76.61
2018-02-08T17:28:24.773Z,76.26
2018-02-08T17:30:52.243Z,76.75
2018-02-08T17:33:19.750Z,76.71
2018-02-08T17:35:47.479Z,77.29
2018-02-08T17:38:15.005Z,77.75
2018-02-08T17:40:42.495Z,77.82
2018-02-08T17:43:09.996Z,77.59
2018-02-08T17:45:37.467Z,77.80
2018-02-08T17:48:04.968Z,78.41
2018-02-08T17:50:32.433Z,78.56
2018-02-08T17:52:59.926Z,79.20
2018-02-08T17:55:27.650Z,80.11
2018-02-08T17:57:55.153Z,80.71
2018-02-08T18:00:22.619Z,80.75
2018-02-08T18:02:50.108Z,80.95
2018-02-08T18:05:17.602Z,81.37
2018-02-08T18:07:45.094Z,81.38
2018-02-08T18:10:12.605Z,81.58
2018-02-08T18:12:40.067Z,81.70
2018-02-08T18:15:07.534Z,81.72
2018-02-08T18:17:35.047Z,81.62
2018-02-08T18:20:02.516Z,81.39
2018-02-08T18:22:30.008Z,80.59
2018-02-08T18:24:57.499Z,80.13
2018-02-08T18:27:24.993Z,80.30
2018-02-08T18:29:52.475Z,80.49
2018-02-08T18:32:19.967Z,80.59
2018-02-08T18:34:48.354Z,80.23
2018-02-08T18:37:15.860Z,79.92
2018-02-08T18:39:43.335Z,79.89
2018-02-08T18:42:10.832Z,80.04
2018-02-08T18:44:38.302Z,80.24
2018-02-08T18:47:05.773Z,80.32
2018-02-08T18:49:33.308Z,80.36
2018-02-08T18:52:00.793Z,80.50
2018-02-08T18:54:28.271Z,80.80
2018-02-08T18:56:55.762Z,81.02
2018-02-08T18:59:23.257Z,81.38
2018-02-08T19:01:50.750Z,81.37
2018-02-08T19:04:18.243Z,81.50
2018-02-08T19:06:45.702Z,81.52
2018-02-08T19:09:13.208Z,81.40
2018-02-08T19:11:40.679Z,81.66
2018-02-08T19:14:08.178Z,81.97
2018-02-08T19:16:35.643Z,82.38
2018-02-08T19:19:03.149Z,82.78
2018-02-08T19:21:30.631Z,83.13
2018-02-08T19:23:58.116Z,83.23
2018-02-08T19:26:25.587Z,83.26
2018-02-08T19:28:53.076Z,83.48
2018-02-08T19:31:20.546Z,83.84
2018-02-08T19:33:48.065Z,84.02
2018-02-08T19:36:15.526Z,84.50
2018-02-08T19:38:43.010Z,84.40
2018-02-08T19:41:10.482Z,84.39
2018-02-08T19:43:37.959Z,84.54
2018-02-08T19:46:05.543Z,84.61
2018-02-08T19:48:33.051Z,84.59
2018-02-08T19:51:01.499Z,84.98
2018-02-08T19:53:28.984Z,85.00
2018-02-08T19:55:56.455Z,85.31
2018-02-08T19:58:23.951Z,85.29
2018-02-08T20:00:51.436Z,85.67
2018-02-08T20:03:18.967Z,85.73
2018-02-08T20:05:46.446Z,85.84
2018-02-08T20:08:13.906Z,85.94
2018-02-08T20:10:41.400Z,85.56
2018-02-08T20:13:08.871Z,85.46
2018-02-08T20:15:36.366Z,85.57
2018-02-08T20:18:03.863Z,85.64
2018-02-08T20:20:31.346Z,85.80
2018-02-08T20:22:58.816Z,86.10
2018-02-08T20:25:41.963Z,86.47
2018-02-08T20:28:09.434Z,86.44
2018-02-08T20:30:36.923Z,86.42
2018-02-08T20:33:04.404Z,86.35
2018-02-08T20:35:31.890Z,86.22
2018-02-08T20:37:59.356Z,85.87
2018-02-08T20:40:26.851Z,85.70
2018-02-08T20:43:00.187Z,85.85
2018-02-08T20:45:28.211Z,85.91
2018-02-08T20:47:55.699Z,86.00
2018-02-08T20:50:23.231Z,86.10
2018-02-08T20:52:51.725Z,86.32
2018-02-08T20:55:19.231Z,86.70
2018-02-08T20:57:46.709Z,86.77
2018-02-08T21:00:14.229Z,86.69
2018-02-08T21:02:41.713Z,86.65
2018-02-08T21:05:09.212Z,86.80
2018-02-08T21:07:36.730Z,87.02
2018-02-08T21:10:04.228Z,86.89
2018-02-08T21:12:32.204Z,86.84
2018-02-08T21:14:59.703Z,86.57
2018-02-08T21:17:27.209Z,86.44
2018-02-08T21:19:54.695Z,86.47
2018-02-08T21:22:22.160Z,86.48
2018-02-08T21:24:49.664Z,86.57
2018-02-08T21:27:17.148Z,86.49
2018-02-08T21:29:44.674Z,86.63
2018-02-08T21:32:12.371Z,86.62
2018-02-08T21:34:39.972Z,86.74
2018-02-08T21:37:07.463Z,86.78
2018-02-08T21:39:34.976Z,86.78
2018-02-08T21:42:02.499Z,86.74
2018-02-08T21:44:29.987Z,86.59
2018-02-08T21:46:57.483Z,86.52
2018-02-08T21:49:24.959Z,86.57
2018-02-08T21:51:52.455Z,86.56
2018-02-08T21:54:19.934Z,86.62
2018-02-08T21:56:47.472Z,86.74
2018-02-08T21:59:14.939Z,86.71
2018-02-08T22:01:42.434Z,86.69
2018-02-08T22:04:09.919Z,86.61
2018-02-08T22:06:37.406Z,86.66
2018-02-08T22:09:04.916Z,86.50
2018-02-08T22:11:32.405Z,86.53
2018-02-08T22:13:59.874Z,86.40
2018-02-08T22:16:27.365Z,86.15
2018-02-08T22:18:54.835Z,86.07
2018-02-08T22:21:22.332Z,86.09
2018-02-08T22:23:49.875Z,86.20
2018-02-08T22:26:17.359Z,86.26
2018-02-08T22:28:44.831Z,86.34
2018-02-08T22:31:12.310Z,86.33
2018-02-08T22:33:39.783Z,86.37
2018-02-08T22:36:07.303Z,86.42
2018-02-08T22:38:35.736Z,86.45
2018-02-08T22:41:03.263Z,86.46
2018-02-08T22:43:31.018Z,86.44
2018-02-08T22:45:58.898Z,86.51
2018-02-08T22:48:26.631Z,86.71
2018-02-08T22:50:54.138Z,86.80
2018-02-08T22:53:21.635Z,86.79
2018-02-08T22:55:49.214Z,86.83
2018-02-08T22:58:16.715Z,86.81
2018-02-08T23:00:45.016Z,86.90
2018-02-08T23:03:12.845Z,86.91
2018-02-08T23:05:40.377Z,87.11
2018-02-08T23:08:08.427Z,87.20
2018-02-08T23:10:36.369Z,87.25
2018-02-08T23:13:03.916Z,87.25
2018-02-08T23:15:31.709Z,87.38
2018-02-08T23:17:59.250Z,87.08
2018-02-08T23:20:26.759Z,86.98
2018-02-08T23:22:54.327Z,86.66
2018-02-08T23:25:22.669Z,86.64
2018-02-08T23:27:50.246Z,86.56
2018-02-08T23:30:18.541Z,86.59
2018-02-08T23:32:46.638Z,86.57
2018-02-08T23:35:14.516Z,86.62
2018-02-08T23:37:42.081Z,86.59
2018-02-08T23:40:09.604Z,86.50
2018-02-08T23:42:37.185Z,86.46
2018-02-08T23:45:05.543Z,86.46
2018-02-08T23:47:33.068Z,86.46
2018-02-08T23:50:01.037Z,86.50
2018-02-08T23:52:28.807Z,86.36
2018-02-08T23:54:56.276Z,86.41
2018-02-08T23:57:23.866Z,86.51
2018-02-08T23:59:51.623Z,86.65
